sensor_id;sensor_type;location;lat;lon;timestamp;temperature;humidity
47174;DHT22;36730;49.036;9.094;2023-09-12T00:00:42;27.00;74.50
47174;DHT22;36730;49.036;9.094;2023-09-12T00:03:08;27.00;74.60
47174;DHT22;36730;49.036;9.094;2023-09-12T00:05:33;27.00;74.50
47174;DHT22;36730;49.036;9.094;2023-09-12T00:07:59;27.00;74.60
47174;DHT22;36730;49.036;9.094;2023-09-12T00:10:24;27.00;74.70
47174;DHT22;36730;49.036;9.094;2023-09-12T00:12:50;26.90;74.70
47174;DHT22;36730;49.036;9.094;2023-09-12T00:15:16;26.90;74.80
47174;DHT22;36730;49.036;9.094;2023-09-12T00:17:41;27.00;75.00
47174;DHT22;36730;49.036;9.094;2023-09-12T00:20:07;26.90;75.00
47174;DHT22;36730;49.036;9.094;2023-09-12T00:22:33;27.00;75.20
47174;DHT22;36730;49.036;9.094;2023-09-12T00:24:58;27.00;75.20
47174;DHT22;36730;49.036;9.094;2023-09-12T00:27:24;26.90;75.30
47174;DHT22;36730;49.036;9.094;2023-09-12T00:29:49;26.90;75.30
47174;DHT22;36730;49.036;9.094;2023-09-12T00:32:15;27.00;75.30
47174;DHT22;36730;49.036;9.094;2023-09-12T00:34:40;26.90;75.50
47174;DHT22;36730;49.036;9.094;2023-09-12T00:37:06;26.90;75.40
47174;DHT22;36730;49.036;9.094;2023-09-12T00:39:31;26.90;75.50
47174;DHT22;36730;49.036;9.094;2023-09-12T00:41:57;26.90;75.60
47174;DHT22;36730;49.036;9.094;2023-09-12T00:44:22;26.90;75.70
47174;DHT22;36730;49.036;9.094;2023-09-12T00:46:48;26.80;75.70
47174;DHT22;36730;49.036;9.094;2023-09-12T00:49:14;26.90;75.90
47174;DHT22;36730;49.036;9.094;2023-09-12T00:51:40;26.80;75.90
47174;DHT22;36730;49.036;9.094;2023-09-12T00:54:07;26.90;75.80
47174;DHT22;36730;49.036;9.094;2023-09-12T00:56:32;26.90;75.90
47174;DHT22;36730;49.036;9.094;2023-09-12T00:58:58;26.80;76.00
47174;DHT22;36730;49.036;9.094;2023-09-12T01:01:24;26.80;76.10
47174;DHT22;36730;49.036;9.094;2023-09-12T01:03:49;26.80;76.30
47174;DHT22;36730;49.036;9.094;2023-09-12T01:06:15;26.80;76.30
47174;DHT22;36730;49.036;9.094;2023-09-12T01:08:42;26.80;76.90
47174;DHT22;36730;49.036;9.094;2023-09-12T01:11:07;26.80;77.00
47174;DHT22;36730;49.036;9.094;2023-09-12T01:13:33;26.80;76.50
47174;DHT22;36730;49.036;9.094;2023-09-12T01:15:59;26.80;76.50
47174;DHT22;36730;49.036;9.094;2023-09-12T01:18:24;26.80;76.60
47174;DHT22;36730;49.036;9.094;2023-09-12T01:23:29;26.80;76.70
47174;DHT22;36730;49.036;9.094;2023-09-12T01:26:01;26.80;76.70
47174;DHT22;36730;49.036;9.094;2023-09-12T01:28:28;26.80;76.80
47174;DHT22;36730;49.036;9.094;2023-09-12T01:30:55;26.80;76.80
47174;DHT22;36730;49.036;9.094;2023-09-12T01:33:22;26.80;76.80
47174;DHT22;36730;49.036;9.094;2023-09-12T01:35:48;26.80;77.20
47174;DHT22;36730;49.036;9.094;2023-09-12T01:38:13;26.70;76.80
47174;DHT22;36730;49.036;9.094;2023-09-12T01:40:57;26.70;76.70
47174;DHT22;36730;49.036;9.094;2023-09-12T01:43:23;26.70;76.90
47174;DHT22;36730;49.036;9.094;2023-09-12T01:45:52;26.70;76.80
47174;DHT22;36730;49.036;9.094;2023-09-12T01:48:19;26.70;76.70
47174;DHT22;36730;49.036;9.094;2023-09-12T01:50:45;26.70;76.80
47174;DHT22;36730;49.036;9.094;2023-09-12T01:53:11;26.70;76.90
47174;DHT22;36730;49.036;9.094;2023-09-12T01:55:37;26.70;76.80
47174;DHT22;36730;49.036;9.094;2023-09-12T01:58:02;26.70;77.00
47174;DHT22;36730;49.036;9.094;2023-09-12T02:00:28;26.70;76.90
47174;DHT22;36730;49.036;9.094;2023-09-12T02:02:54;26.70;77.00
47174;DHT22;36730;49.036;9.094;2023-09-12T02:05:20;26.70;77.00
47174;DHT22;36730;49.036;9.094;2023-09-12T02:07:46;26.70;77.00
47174;DHT22;36730;49.036;9.094;2023-09-12T02:10:12;26.70;76.90
47174;DHT22;36730;49.036;9.094;2023-09-12T02:12:38;26.70;77.00
47174;DHT22;36730;49.036;9.094;2023-09-12T02:15:03;26.70;77.20
47174;DHT22;36730;49.036;9.094;2023-09-12T02:17:29;26.70;77.20
47174;DHT22;36730;49.036;9.094;2023-09-12T02:19:55;26.70;77.40
47174;DHT22;36730;49.036;9.094;2023-09-12T02:22:20;26.70;77.20
47174;DHT22;36730;49.036;9.094;2023-09-12T02:24:45;26.70;77.20
47174;DHT22;36730;49.036;9.094;2023-09-12T02:27:11;26.60;77.20
47174;DHT22;36730;49.036;9.094;2023-09-12T02:29:38;26.60;77.20
47174;DHT22;36730;49.036;9.094;2023-09-12T02:32:03;26.60;77.30
47174;DHT22;36730;49.036;9.094;2023-09-12T02:34:29;26.60;77.40
47174;DHT22;36730;49.036;9.094;2023-09-12T02:36:54;26.60;77.40
47174;DHT22;36730;49.036;9.094;2023-09-12T02:39:20;26.60;77.50
47174;DHT22;36730;49.036;9.094;2023-09-12T02:41:45;26.60;77.50
47174;DHT22;36730;49.036;9.094;2023-09-12T02:44:11;26.60;77.50
47174;DHT22;36730;49.036;9.094;2023-09-12T02:46:37;26.60;77.50
47174;DHT22;36730;49.036;9.094;2023-09-12T02:49:02;26.60;77.50
47174;DHT22;36730;49.036;9.094;2023-09-12T02:51:28;26.60;77.40
47174;DHT22;36730;49.036;9.094;2023-09-12T02:53:53;26.60;77.60
47174;DHT22;36730;49.036;9.094;2023-09-12T02:56:19;26.50;77.40
47174;DHT22;36730;49.036;9.094;2023-09-12T02:58:48;26.50;77.50
47174;DHT22;36730;49.036;9.094;2023-09-12T03:01:14;26.50;77.50
47174;DHT22;36730;49.036;9.094;2023-09-12T03:03:40;26.50;77.30
47174;DHT22;36730;49.036;9.094;2023-09-12T03:06:05;26.40;77.00
47174;DHT22;36730;49.036;9.094;2023-09-12T03:08:31;26.30;77.00
47174;DHT22;36730;49.036;9.094;2023-09-12T03:10:56;26.20;77.40
47174;DHT22;36730;49.036;9.094;2023-09-12T03:13:25;26.10;77.50
47174;DHT22;36730;49.036;9.094;2023-09-12T03:15:51;25.90;77.90
47174;DHT22;36730;49.036;9.094;2023-09-12T03:18:16;25.80;78.40
47174;DHT22;36730;49.036;9.094;2023-09-12T03:20:42;25.70;79.00
47174;DHT22;36730;49.036;9.094;2023-09-12T03:23:07;25.60;79.30
47174;DHT22;36730;49.036;9.094;2023-09-12T03:25:36;25.50;79.80
47174;DHT22;36730;49.036;9.094;2023-09-12T03:28:03;25.40;80.20
47174;DHT22;36730;49.036;9.094;2023-09-12T03:30:29;25.40;80.40
47174;DHT22;36730;49.036;9.094;2023-09-12T03:32:54;25.40;80.40
47174;DHT22;36730;49.036;9.094;2023-09-12T03:35:20;25.40;80.40
47174;DHT22;36730;49.036;9.094;2023-09-12T03:37:45;25.30;80.20
47174;DHT22;36730;49.036;9.094;2023-09-12T03:40:10;25.30;80.50
47174;DHT22;36730;49.036;9.094;2023-09-12T03:42:36;25.20;80.60
47174;DHT22;36730;49.036;9.094;2023-09-12T03:45:02;25.20;80.90
47174;DHT22;36730;49.036;9.094;2023-09-12T03:47:28;25.10;81.30
47174;DHT22;36730;49.036;9.094;2023-09-12T03:49:54;25.00;81.40
47174;DHT22;36730;49.036;9.094;2023-09-12T03:52:19;25.00;81.80
47174;DHT22;36730;49.036;9.094;2023-09-12T03:54:45;24.90;82.20
47174;DHT22;36730;49.036;9.094;2023-09-12T03:57:10;24.80;82.10
47174;DHT22;36730;49.036;9.094;2023-09-12T03:59:35;24.80;82.60
47174;DHT22;36730;49.036;9.094;2023-09-12T04:02:01;24.80;83.10
47174;DHT22;36730;49.036;9.094;2023-09-12T04:04:28;24.70;83.30
47174;DHT22;36730;49.036;9.094;2023-09-12T04:06:53;24.60;83.90
47174;DHT22;36730;49.036;9.094;2023-09-12T04:09:20;24.50;84.60
47174;DHT22;36730;49.036;9.094;2023-09-12T04:11:45;24.50;85.00
47174;DHT22;36730;49.036;9.094;2023-09-12T04:14:11;24.50;85.10
47174;DHT22;36730;49.036;9.094;2023-09-12T04:16:36;24.40;85.10
47174;DHT22;36730;49.036;9.094;2023-09-12T04:19:02;24.30;86.60
47174;DHT22;36730;49.036;9.094;2023-09-12T04:21:28;24.10;87.80
47174;DHT22;36730;49.036;9.094;2023-09-12T04:23:53;24.20;87.20
47174;DHT22;36730;49.036;9.094;2023-09-12T04:26:19;24.20;86.90
47174;DHT22;36730;49.036;9.094;2023-09-12T04:28:46;24.20;86.80
47174;DHT22;36730;49.036;9.094;2023-09-12T04:31:12;24.20;86.40
47174;DHT22;36730;49.036;9.094;2023-09-12T04:33:37;24.20;86.20
47174;DHT22;36730;49.036;9.094;2023-09-12T04:36:03;24.20;85.90
47174;DHT22;36730;49.036;9.094;2023-09-12T04:38:28;24.20;86.10
47174;DHT22;36730;49.036;9.094;2023-09-12T04:40:55;24.20;86.50
47174;DHT22;36730;49.036;9.094;2023-09-12T04:43:20;24.10;87.30
47174;DHT22;36730;49.036;9.094;2023-09-12T04:45:46;24.10;88.00
47174;DHT22;36730;49.036;9.094;2023-09-12T04:48:11;24.10;88.20
47174;DHT22;36730;49.036;9.094;2023-09-12T04:50:40;24.10;88.00
47174;DHT22;36730;49.036;9.094;2023-09-12T04:53:06;24.00;87.90
47174;DHT22;36730;49.036;9.094;2023-09-12T04:55:31;24.10;88.60
47174;DHT22;36730;49.036;9.094;2023-09-12T04:57:57;24.10;88.30
47174;DHT22;36730;49.036;9.094;2023-09-12T05:00:22;24.10;88.60
47174;DHT22;36730;49.036;9.094;2023-09-12T05:02:48;24.10;88.10
47174;DHT22;36730;49.036;9.094;2023-09-12T05:05:13;24.10;88.50
47174;DHT22;36730;49.036;9.094;2023-09-12T05:07:39;24.10;88.50
47174;DHT22;36730;49.036;9.094;2023-09-12T05:10:04;24.20;88.60
47174;DHT22;36730;49.036;9.094;2023-09-12T05:12:30;24.10;88.90
47174;DHT22;36730;49.036;9.094;2023-09-12T05:14:55;24.10;89.70
47174;DHT22;36730;49.036;9.094;2023-09-12T05:17:21;24.10;89.80
47174;DHT22;36730;49.036;9.094;2023-09-12T05:19:46;24.10;90.00
47174;DHT22;36730;49.036;9.094;2023-09-12T05:22:12;24.10;90.10
47174;DHT22;36730;49.036;9.094;2023-09-12T05:24:37;24.10;90.00
47174;DHT22;36730;49.036;9.094;2023-09-12T05:27:03;24.20;90.00
47174;DHT22;36730;49.036;9.094;2023-09-12T05:29:30;24.20;90.10
47174;DHT22;36730;49.036;9.094;2023-09-12T05:31:56;24.20;89.70
47174;DHT22;36730;49.036;9.094;2023-09-12T05:34:21;24.20;89.60
47174;DHT22;36730;49.036;9.094;2023-09-12T05:36:47;24.20;90.00
47174;DHT22;36730;49.036;9.094;2023-09-12T05:39:12;24.20;89.60
47174;DHT22;36730;49.036;9.094;2023-09-12T05:41:39;24.20;91.40
47174;DHT22;36730;49.036;9.094;2023-09-12T05:44:04;24.20;90.50
47174;DHT22;36730;49.036;9.094;2023-09-12T05:46:30;24.20;90.50
47174;DHT22;36730;49.036;9.094;2023-09-12T05:48:55;24.20;90.50
47174;DHT22;36730;49.036;9.094;2023-09-12T05:51:21;24.20;90.80
47174;DHT22;36730;49.036;9.094;2023-09-12T05:53:46;24.20;90.60
47174;DHT22;36730;49.036;9.094;2023-09-12T05:56:12;24.10;90.90
47174;DHT22;36730;49.036;9.094;2023-09-12T05:58:37;24.00;91.20
47174;DHT22;36730;49.036;9.094;2023-09-12T06:01:08;24.00;91.30
47174;DHT22;36730;49.036;9.094;2023-09-12T06:03:33;24.10;91.40
47174;DHT22;36730;49.036;9.094;2023-09-12T06:05:59;24.00;91.60
47174;DHT22;36730;49.036;9.094;2023-09-12T06:08:24;24.00;91.80
47174;DHT22;36730;49.036;9.094;2023-09-12T06:10:49;24.10;91.30
47174;DHT22;36730;49.036;9.094;2023-09-12T06:13:19;24.10;91.10
47174;DHT22;36730;49.036;9.094;2023-09-12T06:15:44;24.10;91.20
47174;DHT22;36730;49.036;9.094;2023-09-12T06:18:10;24.10;91.10
47174;DHT22;36730;49.036;9.094;2023-09-12T06:20:35;24.10;91.30
47174;DHT22;36730;49.036;9.094;2023-09-12T06:23:01;24.20;91.10
47174;DHT22;36730;49.036;9.094;2023-09-12T06:25:26;24.20;91.00
47174;DHT22;36730;49.036;9.094;2023-09-12T06:27:54;24.20;91.00
47174;DHT22;36730;49.036;9.094;2023-09-12T06:30:19;24.20;91.00
47174;DHT22;36730;49.036;9.094;2023-09-12T06:32:45;24.20;91.20
47174;DHT22;36730;49.036;9.094;2023-09-12T06:35:10;24.20;91.20
47174;DHT22;36730;49.036;9.094;2023-09-12T06:37:39;24.20;91.20
47174;DHT22;36730;49.036;9.094;2023-09-12T06:40:05;24.20;90.80
47174;DHT22;36730;49.036;9.094;2023-09-12T06:42:31;24.20;91.40
47174;DHT22;36730;49.036;9.094;2023-09-12T06:44:56;24.30;90.70
47174;DHT22;36730;49.036;9.094;2023-09-12T06:47:22;24.30;90.70
47174;DHT22;36730;49.036;9.094;2023-09-12T06:49:47;24.30;90.70
47174;DHT22;36730;49.036;9.094;2023-09-12T06:52:13;24.30;90.70
47174;DHT22;36730;49.036;9.094;2023-09-12T06:54:38;24.20;91.20
47174;DHT22;36730;49.036;9.094;2023-09-12T06:57:04;24.20;91.50
47174;DHT22;36730;49.036;9.094;2023-09-12T06:59:29;24.20;91.50
47174;DHT22;36730;49.036;9.094;2023-09-12T07:01:55;24.20;91.60
47174;DHT22;36730;49.036;9.094;2023-09-12T07:04:21;24.30;91.30
47174;DHT22;36730;49.036;9.094;2023-09-12T07:06:46;24.30;90.90
47174;DHT22;36730;49.036;9.094;2023-09-12T07:09:11;24.40;90.80
47174;DHT22;36730;49.036;9.094;2023-09-12T07:11:40;24.40;90.70
47174;DHT22;36730;49.036;9.094;2023-09-12T07:14:06;24.30;91.10
47174;DHT22;36730;49.036;9.094;2023-09-12T07:16:31;24.30;91.20
47174;DHT22;36730;49.036;9.094;2023-09-12T07:18:57;24.40;90.80
47174;DHT22;36730;49.036;9.094;2023-09-12T07:21:23;24.40;91.00
47174;DHT22;36730;49.036;9.094;2023-09-12T07:23:48;24.40;91.40
47174;DHT22;36730;49.036;9.094;2023-09-12T07:26:14;24.40;91.30
47174;DHT22;36730;49.036;9.094;2023-09-12T07:28:40;24.40;91.20
47174;DHT22;36730;49.036;9.094;2023-09-12T07:31:05;24.40;91.40
47174;DHT22;36730;49.036;9.094;2023-09-12T07:33:31;24.40;91.20
47174;DHT22;36730;49.036;9.094;2023-09-12T07:35:57;24.40;91.20
47174;DHT22;36730;49.036;9.094;2023-09-12T07:38:22;24.40;91.30
47174;DHT22;36730;49.036;9.094;2023-09-12T07:40:48;24.50;91.60
47174;DHT22;36730;49.036;9.094;2023-09-12T07:43:13;24.50;92.00
47174;DHT22;36730;49.036;9.094;2023-09-12T07:45:39;24.50;91.90
47174;DHT22;36730;49.036;9.094;2023-09-12T07:48:08;24.50;91.80
47174;DHT22;36730;49.036;9.094;2023-09-12T07:50:33;24.50;92.10
47174;DHT22;36730;49.036;9.094;2023-09-12T07:52:59;24.60;91.80
47174;DHT22;36730;49.036;9.094;2023-09-12T07:55:25;24.60;91.60
47174;DHT22;36730;49.036;9.094;2023-09-12T07:57:50;24.60;91.80
47174;DHT22;36730;49.036;9.094;2023-09-12T08:00:16;24.70;93.00
47174;DHT22;36730;49.036;9.094;2023-09-12T08:02:42;24.70;92.00
47174;DHT22;36730;49.036;9.094;2023-09-12T08:05:08;24.70;92.40
47174;DHT22;36730;49.036;9.094;2023-09-12T08:07:34;24.80;92.40
47174;DHT22;36730;49.036;9.094;2023-09-12T08:09:59;24.80;92.50
47174;DHT22;36730;49.036;9.094;2023-09-12T08:12:25;24.90;92.10
47174;DHT22;36730;49.036;9.094;2023-09-12T08:14:51;24.90;91.90
47174;DHT22;36730;49.036;9.094;2023-09-12T08:17:17;24.90;92.30
47174;DHT22;36730;49.036;9.094;2023-09-12T08:19:42;24.80;92.80
47174;DHT22;36730;49.036;9.094;2023-09-12T08:22:09;24.90;92.40
47174;DHT22;36730;49.036;9.094;2023-09-12T08:24:35;25.00;92.00
47174;DHT22;36730;49.036;9.094;2023-09-12T08:27:01;25.00;91.50
47174;DHT22;36730;49.036;9.094;2023-09-12T08:29:29;25.10;91.50
47174;DHT22;36730;49.036;9.094;2023-09-12T08:31:55;25.10;91.50
47174;DHT22;36730;49.036;9.094;2023-09-12T08:34:21;25.10;91.70
47174;DHT22;36730;49.036;9.094;2023-09-12T08:36:46;25.20;91.50
47174;DHT22;36730;49.036;9.094;2023-09-12T08:39:13;25.20;91.10
47174;DHT22;36730;49.036;9.094;2023-09-12T08:41:39;25.30;91.20
47174;DHT22;36730;49.036;9.094;2023-09-12T08:44:05;25.40;90.90
47174;DHT22;36730;49.036;9.094;2023-09-12T08:46:31;25.40;90.80
47174;DHT22;36730;49.036;9.094;2023-09-12T08:48:56;25.50;90.80
47174;DHT22;36730;49.036;9.094;2023-09-12T08:51:25;25.50;90.30
47174;DHT22;36730;49.036;9.094;2023-09-12T08:53:50;25.60;90.00
47174;DHT22;36730;49.036;9.094;2023-09-12T08:56:16;25.60;90.30
47174;DHT22;36730;49.036;9.094;2023-09-12T08:58:42;25.60;90.40
47174;DHT22;36730;49.036;9.094;2023-09-12T09:01:08;25.70;89.90
47174;DHT22;36730;49.036;9.094;2023-09-12T09:03:36;25.70;89.30
47174;DHT22;36730;49.036;9.094;2023-09-12T09:06:02;25.80;87.10
47174;DHT22;36730;49.036;9.094;2023-09-12T09:08:27;25.90;87.50
47174;DHT22;36730;49.036;9.094;2023-09-12T09:11:00;25.90;87.80
47174;DHT22;36730;49.036;9.094;2023-09-12T09:13:28;26.00;87.70
47174;DHT22;36730;49.036;9.094;2023-09-12T09:16:10;26.10;86.50
47174;DHT22;36730;49.036;9.094;2023-09-12T09:21:18;26.20;86.20
47174;DHT22;36730;49.036;9.094;2023-09-12T09:23:47;26.30;85.30
47174;DHT22;36730;49.036;9.094;2023-09-12T09:26:13;26.40;84.40
47174;DHT22;36730;49.036;9.094;2023-09-12T09:28:38;26.50;84.20
47174;DHT22;36730;49.036;9.094;2023-09-12T09:31:05;26.50;83.60
47174;DHT22;36730;49.036;9.094;2023-09-12T09:33:35;26.50;84.00
47174;DHT22;36730;49.036;9.094;2023-09-12T09:36:02;26.60;83.30
47174;DHT22;36730;49.036;9.094;2023-09-12T09:38:28;26.70;83.20
47174;DHT22;36730;49.036;9.094;2023-09-12T09:40:53;26.70;82.90
47174;DHT22;36730;49.036;9.094;2023-09-12T09:43:20;26.70;81.60
47174;DHT22;36730;49.036;9.094;2023-09-12T09:45:45;26.80;81.40
47174;DHT22;36730;49.036;9.094;2023-09-12T09:48:21;26.90;81.20
47174;DHT22;36730;49.036;9.094;2023-09-12T09:50:47;26.90;81.90
47174;DHT22;36730;49.036;9.094;2023-09-12T09:53:12;27.00;81.30
47174;DHT22;36730;49.036;9.094;2023-09-12T09:55:38;27.10;81.40
47174;DHT22;36730;49.036;9.094;2023-09-12T09:58:06;27.10;80.30
47174;DHT22;36730;49.036;9.094;2023-09-12T10:00:33;27.20;80.80
47174;DHT22;36730;49.036;9.094;2023-09-12T10:02:59;27.30;80.70
47174;DHT22;36730;49.036;9.094;2023-09-12T10:05:24;27.30;80.00
47174;DHT22;36730;49.036;9.094;2023-09-12T10:07:50;27.40;79.90
47174;DHT22;36730;49.036;9.094;2023-09-12T10:10:18;27.40;79.00
47174;DHT22;36730;49.036;9.094;2023-09-12T10:12:57;27.50;78.70
47174;DHT22;36730;49.036;9.094;2023-09-12T10:15:23;27.50;78.40
47174;DHT22;36730;49.036;9.094;2023-09-12T10:17:58;27.60;77.30
47174;DHT22;36730;49.036;9.094;2023-09-12T10:20:25;27.70;77.50
47174;DHT22;36730;49.036;9.094;2023-09-12T10:22:55;27.70;77.30
47174;DHT22;36730;49.036;9.094;2023-09-12T10:25:21;27.80;77.20
47174;DHT22;36730;49.036;9.094;2023-09-12T10:27:48;27.80;77.00
47174;DHT22;36730;49.036;9.094;2023-09-12T10:30:14;27.90;76.90
47174;DHT22;36730;49.036;9.094;2023-09-12T10:32:39;28.00;76.80
47174;DHT22;36730;49.036;9.094;2023-09-12T10:35:06;28.00;77.30
47174;DHT22;36730;49.036;9.094;2023-09-12T10:37:33;28.10;76.30
47174;DHT22;36730;49.036;9.094;2023-09-12T10:40:00;28.10;76.60
47174;DHT22;36730;49.036;9.094;2023-09-12T10:42:26;28.10;76.50
47174;DHT22;36730;49.036;9.094;2023-09-12T10:44:52;28.10;76.80
47174;DHT22;36730;49.036;9.094;2023-09-12T10:47:19;28.10;76.80
47174;DHT22;36730;49.036;9.094;2023-09-12T10:49:45;28.10;77.40
47174;DHT22;36730;49.036;9.094;2023-09-12T10:52:10;28.20;76.70
47174;DHT22;36730;49.036;9.094;2023-09-12T10:54:48;28.20;76.60
47174;DHT22;36730;49.036;9.094;2023-09-12T10:57:14;28.20;76.40
47174;DHT22;36730;49.036;9.094;2023-09-12T11:02:30;28.30;76.30
47174;DHT22;36730;49.036;9.094;2023-09-12T11:04:56;28.30;76.00
47174;DHT22;36730;49.036;9.094;2023-09-12T11:12:41;28.40;75.80
47174;DHT22;36730;49.036;9.094;2023-09-12T11:15:07;28.50;75.90
47174;DHT22;36730;49.036;9.094;2023-09-12T11:17:40;28.50;75.80
47174;DHT22;36730;49.036;9.094;2023-09-12T11:20:06;28.60;75.80
47174;DHT22;36730;49.036;9.094;2023-09-12T11:23:09;28.60;75.50
47174;DHT22;36730;49.036;9.094;2023-09-12T11:25:27;28.60;75.30
47174;DHT22;36730;49.036;9.094;2023-09-12T11:30:19;28.70;75.30
47174;DHT22;36730;49.036;9.094;2023-09-12T11:32:51;28.70;75.20
47174;DHT22;36730;49.036;9.094;2023-09-12T11:35:21;28.70;75.00
47174;DHT22;36730;49.036;9.094;2023-09-12T11:37:51;28.70;74.90
47174;DHT22;36730;49.036;9.094;2023-09-12T11:40:17;28.80;74.80
47174;DHT22;36730;49.036;9.094;2023-09-12T11:42:43;28.70;74.60
47174;DHT22;36730;49.036;9.094;2023-09-12T11:45:12;28.80;74.60
47174;DHT22;36730;49.036;9.094;2023-09-12T11:47:40;28.80;74.50
47174;DHT22;36730;49.036;9.094;2023-09-12T11:50:06;28.90;74.90
47174;DHT22;36730;49.036;9.094;2023-09-12T11:52:35;28.90;74.10
47174;DHT22;36730;49.036;9.094;2023-09-12T11:55:01;29.00;73.80
47174;DHT22;36730;49.036;9.094;2023-09-12T11:57:26;29.00;73.60
47174;DHT22;36730;49.036;9.094;2023-09-12T11:59:52;29.00;73.60
47174;DHT22;36730;49.036;9.094;2023-09-12T12:02:17;29.00;73.40
47174;DHT22;36730;49.036;9.094;2023-09-12T12:04:44;29.00;73.40
47174;DHT22;36730;49.036;9.094;2023-09-12T12:07:10;29.00;73.50
47174;DHT22;36730;49.036;9.094;2023-09-12T12:09:35;29.00;73.80
47174;DHT22;36730;49.036;9.094;2023-09-12T12:12:11;29.00;73.20
47174;DHT22;36730;49.036;9.094;2023-09-12T12:14:38;29.00;73.20
47174;DHT22;36730;49.036;9.094;2023-09-12T12:17:10;29.00;73.20
47174;DHT22;36730;49.036;9.094;2023-09-12T12:19:36;29.00;73.50
47174;DHT22;36730;49.036;9.094;2023-09-12T12:22:02;29.00;73.40
47174;DHT22;36730;49.036;9.094;2023-09-12T12:24:35;29.00;73.70
47174;DHT22;36730;49.036;9.094;2023-09-12T12:27:01;29.00;74.50
47174;DHT22;36730;49.036;9.094;2023-09-12T12:29:28;29.00;74.00
47174;DHT22;36730;49.036;9.094;2023-09-12T12:31:53;29.00;73.80
47174;DHT22;36730;49.036;9.094;2023-09-12T12:34:24;29.00;73.90
47174;DHT22;36730;49.036;9.094;2023-09-12T12:36:49;29.00;73.80
47174;DHT22;36730;49.036;9.094;2023-09-12T12:39:15;29.10;73.80
47174;DHT22;36730;49.036;9.094;2023-09-12T12:41:41;29.10;73.40
47174;DHT22;36730;49.036;9.094;2023-09-12T12:44:07;29.20;72.50
47174;DHT22;36730;49.036;9.094;2023-09-12T12:46:33;29.20;72.20
47174;DHT22;36730;49.036;9.094;2023-09-12T12:48:58;29.30;72.00
47174;DHT22;36730;49.036;9.094;2023-09-12T12:51:24;29.30;72.00
47174;DHT22;36730;49.036;9.094;2023-09-12T12:53:51;29.40;70.60
47174;DHT22;36730;49.036;9.094;2023-09-12T12:56:18;29.30;69.10
47174;DHT22;36730;49.036;9.094;2023-09-12T12:58:47;29.30;69.60
47174;DHT22;36730;49.036;9.094;2023-09-12T13:01:14;29.30;68.90
47174;DHT22;36730;49.036;9.094;2023-09-12T13:03:40;29.30;68.20
47174;DHT22;36730;49.036;9.094;2023-09-12T13:06:05;29.30;67.90
47174;DHT22;36730;49.036;9.094;2023-09-12T13:08:32;29.30;67.80
47174;DHT22;36730;49.036;9.094;2023-09-12T13:11:00;29.30;67.70
47174;DHT22;36730;49.036;9.094;2023-09-12T13:13:26;29.30;68.30
47174;DHT22;36730;49.036;9.094;2023-09-12T13:15:52;29.30;67.10
47174;DHT22;36730;49.036;9.094;2023-09-12T13:18:17;29.40;67.60
47174;DHT22;36730;49.036;9.094;2023-09-12T13:20:43;29.40;67.30
47174;DHT22;36730;49.036;9.094;2023-09-12T13:23:09;29.40;67.00
47174;DHT22;36730;49.036;9.094;2023-09-12T13:25:34;29.50;67.00
47174;DHT22;36730;49.036;9.094;2023-09-12T13:27:59;29.50;66.70
47174;DHT22;36730;49.036;9.094;2023-09-12T13:30:25;29.60;67.00
47174;DHT22;36730;49.036;9.094;2023-09-12T13:32:50;29.60;65.80
47174;DHT22;36730;49.036;9.094;2023-09-12T13:35:16;29.60;65.10
47174;DHT22;36730;49.036;9.094;2023-09-12T13:37:42;29.60;64.60
47174;DHT22;36730;49.036;9.094;2023-09-12T13:40:07;29.70;63.80
47174;DHT22;36730;49.036;9.094;2023-09-12T13:42:34;29.70;63.80
47174;DHT22;36730;49.036;9.094;2023-09-12T13:44:59;29.70;63.00
47174;DHT22;36730;49.036;9.094;2023-09-12T13:47:25;29.60;62.80
47174;DHT22;36730;49.036;9.094;2023-09-12T13:49:51;29.70;62.70
47174;DHT22;36730;49.036;9.094;2023-09-12T13:52:19;29.70;62.30
47174;DHT22;36730;49.036;9.094;2023-09-12T13:54:44;29.70;62.50
47174;DHT22;36730;49.036;9.094;2023-09-12T13:57:10;29.70;61.90
47174;DHT22;36730;49.036;9.094;2023-09-12T13:59:35;29.80;62.30
47174;DHT22;36730;49.036;9.094;2023-09-12T14:02:01;29.80;60.70
47174;DHT22;36730;49.036;9.094;2023-09-12T14:04:26;29.80;60.50
47174;DHT22;36730;49.036;9.094;2023-09-12T14:06:51;29.80;60.60
47174;DHT22;36730;49.036;9.094;2023-09-12T14:09:17;29.80;60.50
47174;DHT22;36730;49.036;9.094;2023-09-12T14:11:42;29.90;60.30
47174;DHT22;36730;49.036;9.094;2023-09-12T14:14:08;29.90;59.90
47174;DHT22;36730;49.036;9.094;2023-09-12T14:16:34;29.90;60.00
47174;DHT22;36730;49.036;9.094;2023-09-12T14:18:59;29.90;59.60
47174;DHT22;36730;49.036;9.094;2023-09-12T14:21:25;29.90;59.70
47174;DHT22;36730;49.036;9.094;2023-09-12T14:23:50;29.90;59.40
47174;DHT22;36730;49.036;9.094;2023-09-12T14:26:16;29.90;59.30
47174;DHT22;36730;49.036;9.094;2023-09-12T14:28:41;29.90;58.50
47174;DHT22;36730;49.036;9.094;2023-09-12T14:31:06;30.00;59.00
47174;DHT22;36730;49.036;9.094;2023-09-12T14:33:38;30.00;59.00
47174;DHT22;36730;49.036;9.094;2023-09-12T14:36:05;30.00;59.20
47174;DHT22;36730;49.036;9.094;2023-09-12T14:38:30;30.00;59.20
47174;DHT22;36730;49.036;9.094;2023-09-12T14:40:56;30.10;59.50
47174;DHT22;36730;49.036;9.094;2023-09-12T14:43:21;30.00;59.50
47174;DHT22;36730;49.036;9.094;2023-09-12T14:45:48;30.10;58.80
47174;DHT22;36730;49.036;9.094;2023-09-12T14:48:14;30.10;58.80
47174;DHT22;36730;49.036;9.094;2023-09-12T14:50:39;30.10;59.40
47174;DHT22;36730;49.036;9.094;2023-09-12T14:53:05;30.10;58.70
47174;DHT22;36730;49.036;9.094;2023-09-12T14:55:31;30.20;58.80
47174;DHT22;36730;49.036;9.094;2023-09-12T14:57:56;30.20;58.30
47174;DHT22;36730;49.036;9.094;2023-09-12T15:00:23;30.20;58.00
47174;DHT22;36730;49.036;9.094;2023-09-12T15:02:48;30.20;57.90
47174;DHT22;36730;49.036;9.094;2023-09-12T15:05:14;30.20;57.80
47174;DHT22;36730;49.036;9.094;2023-09-12T15:07:39;30.20;57.40
47174;DHT22;36730;49.036;9.094;2023-09-12T15:10:05;30.20;57.60
47174;DHT22;36730;49.036;9.094;2023-09-12T15:12:30;30.20;57.70
47174;DHT22;36730;49.036;9.094;2023-09-12T15:14:56;30.20;57.60
47174;DHT22;36730;49.036;9.094;2023-09-12T15:17:21;30.30;57.60
47174;DHT22;36730;49.036;9.094;2023-09-12T15:19:47;30.30;57.60
47174;DHT22;36730;49.036;9.094;2023-09-12T15:22:12;30.30;57.00
47174;DHT22;36730;49.036;9.094;2023-09-12T15:24:40;30.30;56.90
47174;DHT22;36730;49.036;9.094;2023-09-12T15:27:05;30.30;57.40
47174;DHT22;36730;49.036;9.094;2023-09-12T15:29:31;30.30;56.60
47174;DHT22;36730;49.036;9.094;2023-09-12T15:31:56;30.30;56.40
47174;DHT22;36730;49.036;9.094;2023-09-12T15:34:23;30.30;56.70
47174;DHT22;36730;49.036;9.094;2023-09-12T15:36:49;30.30;56.90
47174;DHT22;36730;49.036;9.094;2023-09-12T15:39:14;30.30;56.40